M/V Taku — WI9491 — position and weather

sailwx.info

Track history (hours):
 
Tides and Currents Weather Stations Pressure Air Temp Water Temp Dewpoint Dewpoint Depression Visibility Wind Speed Wind Dir Waves Ship Positions

M/V Taku

More information available from US FCC via Universal Licensing System and Coast Guard Vessel Documentation Center.

Last reported at 2014-Sep-15 02:22 UTC. Time now 2014-Sep-18 05:37 UTC.
Position N 54°22' W 130°36'.

Type: Ship. MMSI: 338697000.

Date/timePositionNaut miles runAvg speedWind from/ knotsBaromVisibWave heightAir tempDewpointWater temp
2014-Sep-15 02:22N 54°22' W 130°36'9 8.4
2014-Sep-15 01:15N 54°17' W 130°22'1 1.2
2014-Sep-15 00:31N 54°18' W 130°21'0 0.0
2014-Sep-14 23:31N 54°18' W 130°21'0 0.0
2014-Sep-14 22:31N 54°18' W 130°21'  
2014-Sep-11 17:13N 54°24' W 130°36'11 6.6
2014-Sep-11 15:33N 54°18' W 130°21'0 0.0
2014-Sep-11 14:33N 54°18' W 130°21'  
2014-Sep-08 03:31N 54°24' W 130°37'1210.0
2014-Sep-08 02:20N 54°16' W 130°22'2 1.9
2014-Sep-08 01:30N 54°18' W 130°21'0 0.0
2014-Sep-08 00:33N 54°18' W 130°21'0 0.0
2014-Sep-07 23:33N 54°18' W 130°21'5 4.0
2014-Sep-07 22:19N 54°14' W 130°26'1215.3
2014-Sep-07 21:33N 54°23' W 130°36'  
Track history (hours):
 
Tides and Currents Weather Stations Pressure Air Temp Water Temp Dewpoint Dewpoint Depression Visibility Wind Speed Wind Dir Waves Ship Positions

M/V Taku

More information available from US FCC via Universal Licensing System and Coast Guard Vessel Documentation Center.

Last reported at 2014-Sep-15 02:22 UTC. Time now 2014-Sep-18 05:37 UTC.
Position N 54°22' W 130°36'.

Type: Ship. MMSI: 338697000.

Date/timePositionNaut miles runAvg speedWind from/ knotsBaromVisibWave heightAir tempDewpointWater temp
2014-Sep-15 02:22N 54°22' W 130°36'9 8.4
2014-Sep-15 01:15N 54°17' W 130°22'1 1.2
2014-Sep-15 00:31N 54°18' W 130°21'0 0.0
2014-Sep-14 23:31N 54°18' W 130°21'0 0.0
2014-Sep-14 22:31N 54°18' W 130°21'  
2014-Sep-11 17:13N 54°24' W 130°36'11 6.6
2014-Sep-11 15:33N 54°18' W 130°21'0 0.0
2014-Sep-11 14:33N 54°18' W 130°21'  
2014-Sep-08 03:31N 54°24' W 130°37'1210.0
2014-Sep-08 02:20N 54°16' W 130°22'2 1.9
2014-Sep-08 01:30N 54°18' W 130°21'0 0.0
2014-Sep-08 00:33N 54°18' W 130°21'0 0.0
2014-Sep-07 23:33N 54°18' W 130°21'5 4.0
2014-Sep-07 22:19N 54°14' W 130°26'1215.3
2014-Sep-07 21:33N 54°23' W 130°36'  

Dump ship's entire track history